Flight Track Log - Related Links

Times and Time Zones

All times are in EDT time to prevent confusion due to time zone crossing. See the EGF9800 flight status page for this flight to view local times or setup timezone preferences in your user account.

Time Position Orientation Groundspeed Altitude Reporting Facility
EDT Latitude Longitude Course Direction KTS MPH feet Rate Location/Type
Fri 09:09:31 AM 46.3536 -87.3947 320° Northwest 148 170 1,500  Level Minneapolis Center
Fri 09:10:33 AM 46.3872 -87.4353 320° Northwest 194 223 3,700 2,274 Climbing Minneapolis Center
Fri 09:11:35 AM 46.3317 -87.4458 187° South 246 283 6,200 2,829 Climbing Minneapolis Center
Fri 09:12:36 AM 46.2594 -87.4217 167° South 270 311 9,500 3,024 Climbing Minneapolis Center
Fri 09:13:38 AM 46.1828 -87.4342 186° South 272 313 12,400 2,585 Climbing Minneapolis Center
Fri 09:14:39 AM 46.1167 -87.4489 189° South 278 320 14,800 2,634 Climbing Minneapolis Center
Fri 09:15:41 AM 46.0158 -87.4711 189° South 294 338 17,800 2,419 Climbing Minneapolis Center
Fri 09:16:43 AM 45.9333 -87.4872 188° South 308 354 19,800 1,935 Climbing Minneapolis Center
Fri 09:17:45 AM 45.8400 -87.5072 188° South 333 383 21,800 1,951 Climbing Minneapolis Center
Fri 09:18:46 AM 45.7417 -87.5286 189° South 352 405 23,800 1,951 Climbing Minneapolis Center
Fri 09:19:48 AM 45.6408 -87.5503 189° South 365 420 25,800 1,610 Climbing Minneapolis Center
Fri 09:20:49 AM 45.5353 -87.5725 188° South 380 437 27,100 1,073 Climbing Minneapolis Center
Fri 09:21:51 AM 45.3981 -87.6019 189° South 411 473 28,000 435 Climbing Minneapolis Center
Fri 09:22:53 AM 45.2778 -87.6289 189° South 431 496 28,000  Level Minneapolis Center
Fri 09:23:54 AM 45.1736 -87.6506 188° South 395 455 28,000  Level Minneapolis Center
Fri 09:24:56 AM 45.0717 -87.6783 191° South 378 435 28,000 -585 Level Minneapolis Center
Fri 09:25:57 AM 44.9611 -87.7092 191° South 398 458 26,800 -1,317 Descending Minneapolis Center
Fri 09:26:59 AM 44.8542 -87.7392 191° South 396 456 25,300 -1,548 Descending Minneapolis Center
Fri 09:28:01 AM 44.7286 -87.7731 191° South 387 445 23,600 -1,122 Descending Minneapolis Center
Fri 09:29:02 AM 44.6264 -87.8000 191° South 378 435 23,000 -293 Descending Minneapolis Center
Fri 09:30:04 AM 44.5289 -87.8286 192° South 365 420 23,000  Level Minneapolis Center
Fri 09:31:06 AM 44.4322 -87.8544 191° South 373 429 23,000  Level Minneapolis Center
Fri 09:32:07 AM 44.3136 -87.8869 191° South 372 428 23,000  Level Minneapolis Center
Fri 09:33:09 AM 44.2133 -87.9147 191° South 367 422 23,000  Level Minneapolis Center
Fri 09:34:11 AM 44.1131 -87.9417 191° South 366 421 23,000 -400 Level Minneapolis Center
Fri 09:35:24 AM 44.0144 -87.9675 191° South 361 415 22,100 -1,956 Descending Minneapolis Center
Fri 09:36:26 AM 43.9014 -87.9989 191° South 355 409 18,600 -3,238 Descending Minneapolis Center
Fri 09:37:30 AM 43.7889 -88.0289 191° South 353 406 15,300 -2,524 Descending Chicago Center
Fri 09:38:32 AM 43.6975 -88.0528 191° South 336 387 13,300 -1,113 Descending Chicago Center
Fri 09:39:34 AM 43.6133 -88.0756 191° South 312 359 13,000 -145 Descending Chicago Center
Fri 09:40:36 AM 43.5264 -88.0983 191° South 315 362 13,000  Level Chicago Center
Fri 09:41:38 AM 43.4394 -88.1214 191° South 314 361 13,000  Level Chicago Center
Fri 09:42:40 AM 43.3564 -88.0786 159° South 335 386 13,000 -677 Level Chicago Center
Fri 09:43:42 AM 43.2703 -87.9942 144° Southeast 326 375 11,600 -968 Descending Chicago Center
Fri 09:44:44 AM 43.2014 -87.9253 144° Southeast 310 357 11,000 -290 Descending Chicago Center
Fri 09:45:46 AM 43.1306 -87.8556 144° Southeast 312 359 11,000  Level Chicago Center
Fri 09:46:49 AM 43.0586 -87.7831 144° Southeast 319 367 11,000 -240 Level Chicago Center
Fri 09:47:51 AM 42.9825 -87.7342 155° Southeast 305 351 10,500 -484 Descending Chicago Center
Fri 09:48:53 AM 42.9050 -87.6997 162° South 292 336 10,000 -581 Descending Chicago Center
Fri 09:49:55 AM 42.8156 -87.6592 162° South 289 333 9,300 -1,065 Descending Chicago Center
Fri 09:50:57 AM 42.7408 -87.6394 169° South 275 316 7,800 -1,113 Descending Chicago Center
Fri 09:51:59 AM 42.6686 -87.6283 174° South 263 303 7,000 -387 Descending Chicago Center
Fri 09:53:01 AM 42.5981 -87.6153 172° South 255 293 7,000  Level Chicago Center
Fri 09:54:03 AM 42.5222 -87.6031 173° South 268 308 7,000 -97 Level Chicago Center
Fri 09:55:05 AM 42.4414 -87.5883 172° South 254 292 6,800 -484 Descending Chicago Center
Fri 09:56:07 AM 42.3722 -87.5736 171° South 250 288 6,000 -387 Descending Chicago Center
Fri 09:57:09 AM 42.3053 -87.5650 175° South 240 276 6,000  Level Chicago Center
Fri 09:58:11 AM 42.2400 -87.5553 174° South 236 272 6,000 -333 Level Chicago Center
Fri 09:59:15 AM 42.1714 -87.5436 173° South 246 283 5,300 -905 Descending Chicago Center
Fri 10:00:17 AM 42.0861 -87.5733 195° South 264 304 4,100 -629 Descending Chicago Center
Fri 10:01:19 AM 42.0333 -87.6261 217° Southwest 246 283 4,000 -57 Descending Chicago Center
Fri 10:02:03 AM 42.0000 -87.6833 232° Southwest 226 260 4,000 -519 Level Chicago TRACON
Fri 10:03:03 AM 42.0000 -87.7500 270° West 193 222 3,100 -1,000 Descending Chicago TRACON
Fri 10:04:03 AM 42.0000 -87.8167 270° West 171 197 2,000 -1,000 Descending Chicago TRACON
Fri 10:05:03 AM 42.0000 -87.8667 270° West 131 151 1,100 -900 Descending Chicago TRACON
Fri 10:07:00 AM 41.9667 -87.9000 169° South  Level FlightAware Approximate

Login

Don't have an account? Register now (free) for customized features, flight alerts, and more!